Time;durP1;ratioP1;P1;durP2;ratioP2;P2;SDS_P1;SDS_P2;PMS_P1;PMS_P2;Temp;Humidity;BMP_temperature;BMP_pressure;BME280_temperature;BME280_humidity;BME280_pressure;Samples;Min_cycle;Max_cycle;Signal;HPM_P1;HPM_P2
2022/05/14 00:02:12;;;;;;;7.70;3.05;;;13.00;99.90;;;;;;5033354;28;20104;-74
2022/05/14 00:04:38;;;;;;;6.80;2.80;;;13.00;99.90;;;;;;5014353;28;20025;-73
2022/05/14 00:07:04;;;;;;;6.15;3.22;;;13.00;99.90;;;;;;5020297;28;20029;-76
2022/05/14 00:09:29;;;;;;;9.50;2.95;;;13.00;99.90;;;;;;5018621;28;20111;-76
2022/05/14 00:14:39;;;;;;;9.98;3.65;;;13.00;99.90;;;;;;5032276;28;20030;-74
2022/05/14 00:17:05;;;;;;;10.10;3.10;;;12.90;99.90;;;;;;5036999;28;20519;-74
2022/05/14 00:19:31;;;;;;;11.35;3.40;;;12.90;99.90;;;;;;4999336;28;20033;-77
2022/05/14 00:21:57;;;;;;;10.85;3.58;;;12.90;99.90;;;;;;5037314;28;20078;-76
2022/05/14 00:24:23;;;;;;;10.70;3.50;;;12.80;99.90;;;;;;5014565;28;20120;-73
2022/05/14 00:26:49;;;;;;;6.13;2.67;;;12.80;99.90;;;;;;5016047;28;20044;-77
2022/05/14 00:29:15;;;;;;;9.18;3.15;;;12.80;99.90;;;;;;5021247;28;20349;-77
2022/05/14 00:31:41;;;;;;;6.93;3.25;;;12.80;99.90;;;;;;5016033;28;20017;-75
2022/05/14 00:34:07;;;;;;;8.95;3.45;;;12.80;99.90;;;;;;5014855;28;20072;-75
2022/05/14 00:36:33;;;;;;;9.52;3.53;;;12.70;99.90;;;;;;5017942;28;20029;-73
2022/05/14 00:38:59;;;;;;;11.38;3.50;;;12.70;99.90;;;;;;5033052;28;20026;-75
2022/05/14 00:41:27;;;;;;;15.90;4.13;;;12.70;99.90;;;;;;5005027;28;20032;-77
2022/05/14 00:44:00;;;;;;;6.75;3.28;;;12.70;99.90;;;;;;5018649;28;20392;-73
2022/05/14 00:46:43;;;;;;;7.90;3.42;;;12.80;99.90;;;;;;5038847;28;20115;-77
2022/05/14 00:49:09;;;;;;;13.77;4.28;;;12.80;99.90;;;;;;5038214;28;20075;-73
2022/05/14 00:51:35;;;;;;;12.80;4.50;;;12.80;99.90;;;;;;5032263;28;20335;-73
2022/05/14 00:54:11;;;;;;;13.20;4.15;;;12.80;99.90;;;;;;5033952;28;20030;-72
2022/05/14 00:56:42;;;;;;;11.48;3.95;;;12.70;99.90;;;;;;5034053;28;20021;-76
2022/05/14 00:59:14;;;;;;;10.40;4.07;;;12.80;99.90;;;;;;5006981;28;20551;-76
2022/05/14 01:01:40;;;;;;;10.32;3.60;;;12.80;99.90;;;;;;5032867;28;20493;-74
2022/05/14 01:04:07;;;;;;;9.70;3.58;;;12.80;99.90;;;;;;5036153;28;20056;-72
2022/05/14 01:06:35;;;;;;;11.57;3.58;;;12.70;99.90;;;;;;5005931;28;20056;-77
2022/05/14 01:09:04;;;;;;;10.05;3.53;;;12.70;99.90;;;;;;5014248;28;20037;-74
2022/05/14 01:11:31;;;;;;;9.45;3.78;;;12.70;99.90;;;;;;5036167;28;20229;-75
2022/05/14 01:13:56;;;;;;;11.13;4.32;;;12.70;99.90;;;;;;5022430;28;20556;-77
2022/05/14 01:16:22;;;;;;;9.20;3.83;;;12.70;99.90;;;;;;5019117;28;20112;-73
2022/05/14 01:18:49;;;;;;;10.65;3.90;;;12.70;99.90;;;;;;5033792;28;20041;-74
2022/05/14 01:21:24;;;;;;;9.30;4.32;;;12.60;99.90;;;;;;5033274;28;20493;-74
2022/05/14 01:26:59;;;;;;;9.07;3.67;;;12.60;99.90;;;;;;5034357;28;20025;-74
2022/05/14 01:29:26;;;;;;;10.43;4.45;;;12.60;99.90;;;;;;5019083;28;20040;-77
2022/05/14 01:31:53;;;;;;;8.32;3.95;;;12.60;99.90;;;;;;5017959;28;20086;-75
2022/05/14 01:34:30;;;;;;;14.95;4.18;;;12.50;99.90;;;;;;5034589;28;20037;-74
2022/05/14 01:36:56;;;;;;;9.30;3.90;;;12.50;99.90;;;;;;5033165;28;20029;-77
2022/05/14 01:39:23;;;;;;;10.98;3.90;;;12.50;99.90;;;;;;5014221;28;20032;-77
2022/05/14 01:41:49;;;;;;;9.23;4.20;;;12.40;99.90;;;;;;5028020;28;20029;-74
2022/05/14 01:44:15;;;;;;;12.05;4.22;;;12.40;99.90;;;;;;5017181;28;20040;-73
2022/05/14 01:46:40;;;;;;;10.65;3.97;;;12.50;99.90;;;;;;5017897;28;20037;-76
2022/05/14 01:49:06;;;;;;;9.10;3.65;;;12.50;99.90;;;;;;5019863;28;20421;-78
2022/05/14 01:51:32;;;;;;;9.30;4.22;;;12.50;99.90;;;;;;5015429;28;20033;-73
2022/05/14 01:53:58;;;;;;;10.75;4.32;;;12.50;99.90;;;;;;5018955;28;20545;-77
2022/05/14 01:56:24;;;;;;;8.68;3.60;;;12.50;99.90;;;;;;5039847;28;20025;-77
2022/05/14 01:58:50;;;;;;;10.02;3.92;;;12.60;99.90;;;;;;5037217;28;20117;-73
2022/05/14 02:01:19;;;;;;;10.93;4.13;;;12.60;99.90;;;;;;5031148;28;20408;-73
2022/05/14 02:03:50;;;;;;;9.70;4.00;;;12.60;99.90;;;;;;5032389;28;20116;-73
2022/05/14 02:06:17;;;;;;;10.73;4.40;;;12.60;99.90;;;;;;5015927;28;20038;-76
2022/05/14 02:08:44;;;;;;;13.63;4.50;;;12.50;99.90;;;;;;5016427;28;20025;-73
2022/05/14 02:11:10;;;;;;;9.93;4.18;;;12.50;99.90;;;;;;5014605;28;20460;-73
2022/05/14 02:13:37;;;;;;;12.45;5.10;;;12.50;99.90;;;;;;5015693;28;20070;-76
2022/05/14 02:16:04;;;;;;;10.77;4.28;;;12.50;99.90;;;;;;5015817;28;20026;-76
2022/05/14 02:18:30;;;;;;;12.25;4.03;;;12.50;99.90;;;;;;5015620;28;20025;-73
2022/05/14 02:20:55;;;;;;;9.88;4.38;;;12.50;99.90;;;;;;5028890;28;20055;-73
2022/05/14 02:23:21;;;;;;;10.38;5.05;;;12.50;99.90;;;;;;5012916;28;20061;-73
2022/05/14 02:25:47;;;;;;;15.55;5.55;;;12.50;99.90;;;;;;5018031;28;20064;-76
2022/05/14 02:28:14;;;;;;;9.68;4.18;;;12.50;99.90;;;;;;5015077;28;20673;-73
2022/05/14 02:30:40;;;;;;;12.48;4.68;;;12.50;99.90;;;;;;5031450;28;20517;-77
2022/05/14 02:33:06;;;;;;;9.73;4.50;;;12.50;99.90;;;;;;5013835;28;20115;-76
2022/05/14 02:35:32;;;;;;;9.65;4.43;;;12.50;99.90;;;;;;5032314;28;20029;-76
2022/05/14 02:37:57;;;;;;;13.82;4.88;;;12.50;99.90;;;;;;5022767;28;20347;-76
2022/05/14 02:40:23;;;;;;;11.93;5.00;;;12.50;99.90;;;;;;5034874;28;20021;-73
2022/05/14 02:42:49;;;;;;;13.02;4.72;;;12.50;99.90;;;;;;5012719;28;20025;-73
2022/05/14 02:45:15;;;;;;;12.02;4.80;;;12.50;99.90;;;;;;5019551;28;20064;-76
2022/05/14 02:47:40;;;;;;;10.18;4.75;;;12.60;99.90;;;;;;5017810;28;20527;-73
2022/05/14 02:50:08;;;;;;;13.82;4.85;;;12.60;99.90;;;;;;5019707;28;20061;-76
2022/05/14 02:52:34;;;;;;;11.38;4.20;;;12.60;99.90;;;;;;5014568;28;20053;-73
2022/05/14 02:55:00;;;;;;;9.73;4.20;;;12.60;99.90;;;;;;5014433;28;20448;-73
2022/05/14 02:57:25;;;;;;;11.57;4.85;;;12.60;99.90;;;;;;5035643;28;20152;-73
2022/05/14 02:59:51;;;;;;;11.43;4.28;;;12.50;99.90;;;;;;5014204;28;20060;-73
2022/05/14 03:02:17;;;;;;;12.07;4.57;;;12.50;99.90;;;;;;5036465;28;20582;-74
2022/05/14 03:04:44;;;;;;;10.68;4.80;;;12.50;99.90;;;;;;5013991;28;21237;-76
2022/05/14 03:07:11;;;;;;;10.65;4.70;;;12.50;99.90;;;;;;5038710;28;20037;-76
2022/05/14 03:09:39;;;;;;;17.05;5.60;;;12.50;99.90;;;;;;5021144;28;20021;-76
2022/05/14 03:12:07;;;;;;;11.95;4.32;;;12.40;99.90;;;;;;5023517;28;20021;-73
2022/05/14 03:14:33;;;;;;;13.70;4.45;;;12.40;99.90;;;;;;5020262;28;20419;-76
2022/05/14 03:16:59;;;;;;;10.40;4.60;;;12.40;99.90;;;;;;5004026;28;20417;-76
2022/05/14 03:19:24;;;;;;;11.77;5.32;;;12.30;99.90;;;;;;5023576;28;20030;-76
2022/05/14 03:21:50;;;;;;;12.30;5.25;;;12.40;99.90;;;;;;5003668;28;20032;-76
2022/05/14 03:24:16;;;;;;;14.82;5.05;;;12.30;99.90;;;;;;5038386;28;20539;-76
2022/05/14 03:26:43;;;;;;;10.90;4.47;;;12.40;99.90;;;;;;5023488;28;20025;-76
2022/05/14 03:29:09;;;;;;;12.95;4.43;;;12.40;99.90;;;;;;5039220;28;20396;-73
2022/05/14 03:31:42;;;;;;;11.75;4.45;;;12.30;99.90;;;;;;5036978;28;20044;-77
2022/05/14 03:34:11;;;;;;;11.85;4.55;;;12.30;99.90;;;;;;5020585;28;20075;-76
2022/05/14 03:36:37;;;;;;;10.88;5.68;;;12.30;99.90;;;;;;5022288;28;20033;-76
2022/05/14 03:39:03;;;;;;;12.25;5.45;;;12.30;99.90;;;;;;5037767;28;20100;-77
2022/05/14 03:41:29;;;;;;;12.65;4.75;;;12.30;99.90;;;;;;5004400;28;20090;-76
2022/05/14 03:43:55;;;;;;;10.43;4.35;;;12.20;99.90;;;;;;5014142;28;20271;-77
2022/05/14 03:46:20;;;;;;;9.98;4.32;;;12.20;99.90;;;;;;5020027;28;20036;-74
2022/05/14 03:48:46;;;;;;;10.07;5.00;;;12.20;99.90;;;;;;5015550;28;20065;-76
2022/05/14 03:51:12;;;;;;;10.90;4.88;;;12.20;99.90;;;;;;5016157;28;20104;-76
2022/05/14 03:53:38;;;;;;;10.40;4.85;;;12.20;99.90;;;;;;5021348;28;20033;-74
2022/05/14 03:56:25;;;;;;;8.70;4.30;;;12.30;99.90;;;;;;5028502;28;20029;-76
2022/05/14 03:58:50;;;;;;;11.75;5.05;;;12.30;99.90;;;;;;4946716;28;20154;-77
2022/05/14 04:01:17;;;;;;;10.73;4.80;;;12.20;99.90;;;;;;4941354;28;20123;-75
2022/05/14 04:03:43;;;;;;;13.63;5.60;;;12.20;99.90;;;;;;4929478;28;20051;-76
2022/05/14 04:06:09;;;;;;;10.45;5.20;;;12.30;99.90;;;;;;4947581;28;20031;-76
2022/05/14 04:08:35;;;;;;;15.52;4.85;;;12.20;99.90;;;;;;4927847;28;20066;-73
2022/05/14 04:11:01;;;;;;;13.75;5.15;;;12.20;99.90;;;;;;4937788;29;20047;-75
2022/05/14 04:13:27;;;;;;;16.23;5.63;;;12.20;99.90;;;;;;4939224;28;20031;-76
2022/05/14 04:15:52;;;;;;;8.90;4.55;;;12.20;99.90;;;;;;4928409;29;20039;-74
2022/05/14 04:18:24;;;;;;;11.57;4.32;;;12.30;99.90;;;;;;4926422;29;20075;-74
2022/05/14 04:20:53;;;;;;;13.98;5.47;;;12.20;99.90;;;;;;4942213;28;20040;-74
2022/05/14 04:23:20;;;;;;;20.02;5.38;;;12.20;99.90;;;;;;4946543;28;20411;-76
2022/05/14 04:25:48;;;;;;;9.18;4.97;;;12.30;99.90;;;;;;4911655;28;20327;-73
2022/05/14 04:28:13;;;;;;;10.80;4.90;;;12.30;99.90;;;;;;4940885;29;20590;-73
2022/05/14 04:30:39;;;;;;;13.38;4.63;;;12.30;99.90;;;;;;4935794;28;20098;-76
2022/05/14 04:33:05;;;;;;;16.63;5.63;;;12.30;99.90;;;;;;4927988;29;20583;-75
2022/05/14 04:35:30;;;;;;;10.82;5.03;;;12.40;99.90;;;;;;4979802;28;20040;-74
2022/05/14 04:37:56;;;;;;;10.35;5.03;;;12.50;99.90;;;;;;5010481;28;20548;-73
2022/05/14 04:40:22;;;;;;;11.00;5.45;;;12.60;99.90;;;;;;5033571;28;20041;-73
2022/05/14 04:42:47;;;;;;;14.20;5.60;;;12.60;99.90;;;;;;5011330;28;20417;-77
2022/05/14 04:45:13;;;;;;;15.00;5.82;;;12.70;99.90;;;;;;5016412;28;20037;-73
2022/05/14 04:47:41;;;;;;;19.70;6.03;;;12.70;99.90;;;;;;5012593;28;20021;-77
2022/05/14 04:50:08;;;;;;;15.93;5.72;;;12.80;99.90;;;;;;5034240;28;20119;-72
2022/05/14 04:52:33;;;;;;;14.98;5.30;;;12.80;99.90;;;;;;5012709;28;20465;-74
2022/05/14 04:54:59;;;;;;;16.13;5.95;;;12.90;99.90;;;;;;4998015;28;20025;-76
2022/05/14 04:57:24;;;;;;;18.67;5.25;;;12.90;99.90;;;;;;5023577;28;20021;-76
2022/05/14 04:59:50;;;;;;;18.45;6.20;;;12.90;99.90;;;;;;4994961;28;20028;-76
2022/05/14 05:05:00;;;;;;;17.35;5.97;;;12.90;99.90;;;;;;5032425;28;20025;-78
2022/05/14 05:07:26;;;;;;;14.60;6.00;;;12.90;99.90;;;;;;5020694;28;20025;-74
2022/05/14 05:09:53;;;;;;;13.40;5.65;;;12.90;99.90;;;;;;4998586;28;20490;-74
2022/05/14 05:12:19;;;;;;;14.90;5.90;;;12.90;99.90;;;;;;5036067;28;20033;-77
2022/05/14 05:14:45;;;;;;;16.42;5.65;;;12.90;99.90;;;;;;4998287;28;20029;-76
2022/05/14 05:17:11;;;;;;;16.42;5.57;;;13.00;99.90;;;;;;4984830;28;20053;-72
2022/05/14 05:19:36;;;;;;;15.13;5.80;;;13.00;99.90;;;;;;5000097;28;20070;-73
2022/05/14 05:22:02;;;;;;;13.90;5.50;;;13.00;99.90;;;;;;5016171;28;20035;-74
2022/05/14 05:24:28;;;;;;;15.18;5.90;;;13.00;99.90;;;;;;5016079;28;20037;-75
2022/05/14 05:26:54;;;;;;;13.38;5.97;;;13.10;99.90;;;;;;5002625;28;20033;-77
2022/05/14 05:29:19;;;;;;;21.95;7.05;;;13.10;99.90;;;;;;5032714;28;20115;-76
2022/05/14 05:31:45;;;;;;;11.60;5.25;;;13.10;99.90;;;;;;5011316;28;20064;-76
2022/05/14 05:34:11;;;;;;;14.77;5.88;;;13.10;99.90;;;;;;5013853;28;20478;-77
2022/05/14 05:36:36;;;;;;;14.80;5.63;;;13.10;99.90;;;;;;4992951;28;20030;-76
2022/05/14 05:39:03;;;;;;;15.35;5.60;;;13.10;99.90;;;;;;5033681;28;20097;-76
2022/05/14 05:41:28;;;;;;;17.83;6.40;;;13.10;99.90;;;;;;5034166;28;20021;-76
2022/05/14 05:43:54;;;;;;;17.88;5.88;;;13.10;99.90;;;;;;5001320;28;20036;-76
2022/05/14 05:46:20;;;;;;;14.88;5.90;;;13.20;99.90;;;;;;5000872;28;20028;-73
2022/05/14 05:48:46;;;;;;;16.42;5.15;;;13.20;99.90;;;;;;5020386;28;20029;-76
2022/05/14 05:51:11;;;;;;;12.27;4.60;;;13.30;99.90;;;;;;4998091;28;20598;-76
2022/05/14 05:59:07;;;;;;;15.75;6.68;;;13.60;99.90;;;;;;5019160;28;20048;-76
2022/05/14 06:01:33;;;;;;;12.00;5.75;;;13.60;99.90;;;;;;5020048;28;20021;-76
2022/05/14 06:03:59;;;;;;;12.98;5.25;;;13.70;99.90;;;;;;5021763;28;20021;-76
2022/05/14 06:06:25;;;;;;;16.88;5.93;;;13.70;99.90;;;;;;5020425;28;20053;-76
2022/05/14 06:08:51;;;;;;;19.85;5.75;;;13.80;99.90;;;;;;5020121;28;20029;-75
2022/05/14 06:11:17;;;;;;;17.77;5.78;;;13.80;99.90;;;;;;5020765;28;20035;-73
2022/05/14 06:13:44;;;;;;;15.90;5.28;;;13.90;99.90;;;;;;5035637;28;20033;-76
2022/05/14 06:16:11;;;;;;;16.38;6.03;;;14.00;99.90;;;;;;5018827;28;20029;-77
2022/05/14 06:18:38;;;;;;;17.65;6.22;;;13.90;99.90;;;;;;5009289;28;20499;-76
2022/05/14 06:21:05;;;;;;;19.90;5.88;;;13.90;99.90;;;;;;5018819;28;20017;-74
2022/05/14 06:23:33;;;;;;;19.23;6.05;;;14.00;99.90;;;;;;5029926;28;20049;-74
2022/05/14 06:25:58;;;;;;;20.15;5.78;;;14.10;99.90;;;;;;5033232;28;20033;-75
2022/05/14 06:28:25;;;;;;;16.92;5.63;;;14.10;99.90;;;;;;5040695;28;20041;-77
2022/05/14 06:30:51;;;;;;;17.15;6.00;;;14.20;99.90;;;;;;5024204;28;20449;-73
2022/05/14 06:33:18;;;;;;;22.52;5.90;;;14.20;99.90;;;;;;5014604;28;20037;-73
2022/05/14 06:35:45;;;;;;;15.68;5.32;;;14.20;99.90;;;;;;5036678;28;20037;-74
2022/05/14 06:38:12;;;;;;;16.35;5.40;;;14.30;99.90;;;;;;5018929;28;20143;-74
2022/05/14 06:40:38;;;;;;;17.52;5.75;;;14.30;99.90;;;;;;5026926;28;20429;-77
2022/05/14 06:43:06;;;;;;;18.05;5.45;;;14.40;99.90;;;;;;5017347;28;20029;-77
2022/05/14 06:45:32;;;;;;;29.35;6.90;;;14.30;99.90;;;;;;5014719;28;20025;-74
2022/05/14 06:47:58;;;;;;;22.45;5.90;;;14.40;99.90;;;;;;5019233;28;20021;-73
2022/05/14 06:50:26;;;;;;;16.30;6.03;;;14.40;99.90;;;;;;5019026;28;20125;-73
2022/05/14 06:52:57;;;;;;;19.83;6.32;;;14.40;99.90;;;;;;5035904;28;20501;-74
2022/05/14 06:55:26;;;;;;;18.53;6.00;;;14.50;99.90;;;;;;5033555;28;20393;-73
2022/05/14 06:57:52;;;;;;;21.80;6.60;;;14.60;99.90;;;;;;5020971;28;20199;-74
2022/05/14 07:00:19;;;;;;;15.13;5.47;;;14.70;99.90;;;;;;5000564;28;20369;-73
2022/05/14 07:02:46;;;;;;;23.75;6.32;;;14.70;99.90;;;;;;5022905;28;20055;-73
2022/05/14 07:07:58;;;;;;;15.85;5.95;;;14.80;99.90;;;;;;5009949;28;20087;-74
2022/05/14 07:10:24;;;;;;;24.95;6.38;;;14.80;99.90;;;;;;5014248;28;20442;-73
2022/05/14 07:12:50;;;;;;;18.83;6.00;;;14.80;99.90;;;;;;5016855;28;20099;-73
2022/05/14 07:15:17;;;;;;;25.42;6.32;;;14.80;99.90;;;;;;5020416;28;20515;-73
2022/05/14 07:17:43;;;;;;;19.40;5.88;;;14.90;99.90;;;;;;5029647;28;20056;-74
2022/05/14 07:20:09;;;;;;;22.35;6.38;;;14.90;99.90;;;;;;5024177;28;20060;-74
2022/05/14 07:22:36;;;;;;;22.38;5.00;;;15.00;99.90;;;;;;5022373;28;20082;-76
2022/05/14 07:25:03;;;;;;;22.40;5.38;;;15.00;99.90;;;;;;5020501;28;20024;-73
2022/05/14 07:27:28;;;;;;;20.27;5.63;;;15.00;99.90;;;;;;5018726;28;20029;-73
2022/05/14 07:29:54;;;;;;;18.08;5.10;;;15.10;99.90;;;;;;5034088;28;20536;-73
2022/05/14 07:32:20;;;;;;;19.52;5.28;;;15.10;99.90;;;;;;5032557;28;20029;-75
2022/05/14 07:34:46;;;;;;;18.85;4.15;;;15.10;99.90;;;;;;5031458;28;20107;-73
2022/05/14 07:37:18;;;;;;;24.27;6.20;;;15.10;99.90;;;;;;5016756;28;20032;-74
2022/05/14 07:39:50;;;;;;;24.40;6.85;;;15.20;99.90;;;;;;5016278;28;20017;-74
2022/05/14 07:42:22;;;;;;;20.67;5.43;;;15.40;99.90;;;;;;5033822;28;20035;-75
2022/05/14 07:44:52;;;;;;;19.60;5.38;;;15.50;99.90;;;;;;4998143;28;20029;-75
2022/05/14 07:47:18;;;;;;;26.75;6.78;;;15.60;99.90;;;;;;5022175;28;20025;-74
2022/05/14 07:49:46;;;;;;;16.85;4.97;;;15.60;99.90;;;;;;5015240;28;21466;-74
2022/05/14 07:52:13;;;;;;;14.60;5.00;;;15.70;99.90;;;;;;5015908;28;20074;-74
2022/05/14 07:54:39;;;;;;;15.93;5.38;;;15.70;99.90;;;;;;5014851;28;20056;-74
2022/05/14 07:57:06;;;;;;;18.67;5.45;;;15.80;99.90;;;;;;5031418;28;20398;-74
2022/05/14 07:59:35;;;;;;;19.17;5.03;;;15.80;99.90;;;;;;5036399;28;20086;-73
2022/05/14 08:02:05;;;;;;;21.83;5.07;;;15.70;99.90;;;;;;5013715;28;20040;-73
2022/05/14 08:04:31;;;;;;;19.23;5.15;;;15.70;99.90;;;;;;5012672;28;20033;-76
2022/05/14 08:06:57;;;;;;;20.25;5.05;;;15.80;99.90;;;;;;5015887;28;20104;-74
2022/05/14 08:09:22;;;;;;;23.05;5.63;;;15.90;99.90;;;;;;5014641;28;20033;-73
2022/05/14 08:11:49;;;;;;;22.02;6.00;;;16.00;99.90;;;;;;5016916;28;20056;-74
2022/05/14 08:14:14;;;;;;;15.52;5.30;;;15.90;99.90;;;;;;5034440;28;20037;-73
2022/05/14 08:16:40;;;;;;;19.60;4.85;;;15.90;99.90;;;;;;5014458;28;20033;-74
2022/05/14 08:19:05;;;;;;;15.13;4.28;;;15.90;99.90;;;;;;5013836;28;20025;-74
2022/05/14 08:24:31;;;;;;;15.15;4.10;;;15.90;99.90;;;;;;5025215;28;20037;-76
2022/05/14 08:27:03;;;;;;;12.98;4.32;;;16.10;99.90;;;;;;5022210;28;20085;-74
2022/05/14 08:29:29;;;;;;;23.20;5.10;;;16.10;99.90;;;;;;5028901;28;20022;-76
2022/05/14 08:31:54;;;;;;;12.02;3.92;;;16.20;99.90;;;;;;5035522;28;20095;-74
2022/05/14 08:34:20;;;;;;;19.48;4.43;;;16.30;99.90;;;;;;5034035;28;20057;-75
2022/05/14 08:36:46;;;;;;;15.30;4.50;;;16.40;99.90;;;;;;5016170;28;20104;-78
2022/05/14 08:39:12;;;;;;;17.15;4.40;;;16.40;99.90;;;;;;5011778;28;20027;-76
2022/05/14 08:41:41;;;;;;;15.65;3.90;;;16.60;99.90;;;;;;5009379;28;20026;-76
2022/05/14 08:44:12;;;;;;;13.32;4.22;;;16.70;99.90;;;;;;5017401;28;20033;-76
2022/05/14 08:46:40;;;;;;;10.88;3.45;;;16.70;99.90;;;;;;5033075;28;20073;-76
2022/05/14 08:49:16;;;;;;;13.38;3.97;;;16.80;99.90;;;;;;5010649;28;20520;-76
2022/05/14 08:51:45;;;;;;;16.88;4.88;;;16.90;99.90;;;;;;5032899;28;20051;-76
2022/05/14 08:54:11;;;;;;;13.93;3.85;;;16.70;99.90;;;;;;5014248;28;20033;-76
2022/05/14 08:56:47;;;;;;;10.48;3.35;;;16.80;99.90;;;;;;5011312;28;20032;-75
2022/05/14 08:59:21;;;;;;;20.83;4.35;;;16.80;99.90;;;;;;5015726;28;20068;-75
2022/05/14 09:01:48;;;;;;;12.20;3.63;;;16.90;99.90;;;;;;5025027;28;20036;-75
2022/05/14 09:04:17;;;;;;;14.48;3.65;;;17.00;99.90;;;;;;5004855;28;20033;-75
2022/05/14 09:06:44;;;;;;;7.68;2.60;;;17.20;99.90;;;;;;5031845;28;20565;-74
2022/05/14 09:09:11;;;;;;;9.00;3.20;;;17.20;99.90;;;;;;5033736;28;20510;-75
2022/05/14 09:11:57;;;;;;;13.40;3.38;;;17.20;99.90;;;;;;5015606;28;20022;-74
2022/05/14 09:14:29;;;;;;;10.18;3.85;;;17.50;99.90;;;;;;5034518;28;20029;-74
2022/05/14 09:17:20;;;;;;;13.93;3.63;;;17.50;99.90;;;;;;5016165;28;20025;-74
2022/05/14 09:19:48;;;;;;;11.70;3.38;;;17.50;99.90;;;;;;5002397;28;20037;-73
2022/05/14 09:22:23;;;;;;;11.38;3.33;;;17.50;99.90;;;;;;5014633;28;20037;-73
2022/05/14 09:24:59;;;;;;;12.38;3.03;;;17.50;99.90;;;;;;5036970;28;20030;-72
2022/05/14 09:27:32;;;;;;;12.85;3.60;;;17.70;99.60;;;;;;5015445;28;20033;-73
2022/05/14 09:30:03;;;;;;;9.02;3.40;;;17.70;99.70;;;;;;5015338;28;20464;-74
2022/05/14 09:32:33;;;;;;;11.48;2.92;;;17.60;99.40;;;;;;5016310;28;20033;-73
2022/05/14 09:35:09;;;;;;;8.07;3.30;;;17.50;99.70;;;;;;5032469;28;21010;-73
2022/05/14 09:37:35;;;;;;;17.95;3.60;;;17.50;99.90;;;;;;5036242;28;20021;-74
2022/05/14 09:40:07;;;;;;;12.48;3.55;;;17.70;99.30;;;;;;5018425;28;20036;-74
2022/05/14 09:42:45;;;;;;;10.57;3.90;;;17.80;99.40;;;;;;5017916;28;20027;-72
2022/05/14 09:45:33;;;;;;;11.32;2.85;;;17.60;99.40;;;;;;5033768;28;20033;-72
2022/05/14 09:48:16;;;;;;;12.63;3.40;;;17.60;99.50;;;;;;5032117;28;20120;-72
2022/05/14 09:50:44;;;;;;;10.18;3.05;;;17.70;99.60;;;;;;5027852;28;20036;-75
2022/05/14 09:53:10;;;;;;;13.63;4.18;;;17.70;99.30;;;;;;5017451;28;20022;-70
2022/05/14 09:55:59;;;;;;;10.88;3.70;;;17.80;98.60;;;;;;5019199;28;20030;-76
2022/05/14 09:58:49;;;;;;;15.23;3.92;;;17.80;98.60;;;;;;5035281;28;20033;-75
2022/05/14 10:01:19;;;;;;;11.15;3.53;;;17.80;98.40;;;;;;5034073;28;20064;-76
2022/05/14 10:04:27;;;;;;;11.57;3.43;;;17.60;97.40;;;;;;5033204;28;20044;-75
2022/05/14 10:07:04;;;;;;;10.02;3.05;;;17.70;97.60;;;;;;5019486;28;20045;-73
2022/05/14 10:09:57;;;;;;;9.43;3.50;;;17.70;97.40;;;;;;5039220;28;20036;-73
2022/05/14 10:12:33;;;;;;;10.48;3.45;;;17.80;97.20;;;;;;5006479;28;20536;-73
2022/05/14 10:15:18;;;;;;;11.07;3.30;;;17.80;97.70;;;;;;5004093;28;20531;-71
2022/05/14 10:18:04;;;;;;;10.93;2.95;;;17.80;97.70;;;;;;5033724;28;20124;-74
2022/05/14 10:20:30;;;;;;;9.68;3.28;;;17.60;97.80;;;;;;5019242;28;20104;-73
2022/05/14 10:29:14;;;;;;;9.95;2.95;;;17.50;97.50;;;;;;5034840;28;20082;-73
2022/05/14 10:31:52;;;;;;;9.32;2.90;;;17.60;97.80;;;;;;5037895;28;20040;-73
2022/05/14 10:34:24;;;;;;;15.32;3.45;;;17.70;97.70;;;;;;5017068;28;20405;-74
2022/05/14 10:37:02;;;;;;;12.15;3.47;;;17.60;98.10;;;;;;5017775;28;20033;-76
2022/05/14 10:39:39;;;;;;;14.30;3.55;;;17.50;97.90;;;;;;5001461;28;20048;-76
2022/05/14 10:42:20;;;;;;;11.43;3.33;;;17.30;98.00;;;;;;5019087;28;20052;-76
2022/05/14 10:44:51;;;;;;;12.15;3.40;;;17.30;98.50;;;;;;5035093;28;20033;-77
2022/05/14 10:47:19;;;;;;;10.85;2.45;;;17.40;98.50;;;;;;5027561;28;20113;-77
2022/05/14 10:49:59;;;;;;;9.32;3.17;;;17.50;97.90;;;;;;5033444;28;20029;-76
2022/05/14 10:52:26;;;;;;;9.37;3.17;;;17.60;97.80;;;;;;5012588;28;20112;-76
2022/05/14 10:54:52;;;;;;;12.00;2.60;;;17.70;97.80;;;;;;5014618;28;20074;-77
2022/05/14 10:57:19;;;;;;;14.25;2.72;;;17.90;97.30;;;;;;5033289;28;20068;-77
2022/05/14 10:59:49;;;;;;;7.55;2.72;;;18.10;97.30;;;;;;5025897;28;20140;-76
2022/05/14 11:02:26;;;;;;;9.50;2.80;;;18.20;96.60;;;;;;5018346;28;20033;-76
2022/05/14 11:04:52;;;;;;;11.48;3.50;;;18.10;96.50;;;;;;5018029;28;20083;-76
2022/05/14 11:07:42;;;;;;;11.80;3.40;;;18.00;96.80;;;;;;5013791;28;20033;-77
2022/05/14 11:10:17;;;;;;;9.20;2.83;;;18.00;96.90;;;;;;5035402;28;20091;-76
2022/05/14 11:12:44;;;;;;;12.73;3.53;;;18.00;96.70;;;;;;5014193;28;20021;-75
2022/05/14 11:15:25;;;;;;;14.50;3.47;;;18.00;96.60;;;;;;5001558;28;20038;-75
2022/05/14 11:18:12;;;;;;;13.55;3.38;;;17.90;96.80;;;;;;5030451;28;20025;-78
2022/05/14 11:20:50;;;;;;;17.15;3.40;;;17.70;97.30;;;;;;5003314;28;20029;-75
2022/05/14 11:23:17;;;;;;;12.48;3.42;;;17.50;97.80;;;;;;5033493;28;20203;-77
2022/05/14 11:25:45;;;;;;;10.77;3.50;;;17.60;97.80;;;;;;5017928;28;20041;-74
2022/05/14 11:28:17;;;;;;;11.90;3.70;;;18.20;98.00;;;;;;5032048;28;20055;-75
2022/05/14 11:30:48;;;;;;;12.43;3.55;;;18.80;96.20;;;;;;5001534;28;20059;-78
2022/05/14 11:33:26;;;;;;;8.93;3.13;;;18.80;95.90;;;;;;5015410;28;20117;-72
2022/05/14 11:36:00;;;;;;;11.93;3.75;;;18.70;96.20;;;;;;5010925;28;20025;-74
2022/05/14 11:38:26;;;;;;;15.10;3.58;;;18.80;96.00;;;;;;5029027;28;20424;-75
2022/05/14 11:41:12;;;;;;;13.40;3.88;;;19.00;95.90;;;;;;5034353;28;20141;-73
2022/05/14 11:43:39;;;;;;;11.65;3.70;;;19.80;96.10;;;;;;5014481;28;20746;-75
2022/05/14 11:46:30;;;;;;;10.23;3.08;;;20.50;93.80;;;;;;5017029;28;20061;-77
2022/05/14 11:49:26;;;;;;;9.57;3.10;;;20.60;93.60;;;;;;5020935;28;20029;-77
2022/05/14 11:52:09;;;;;;;12.85;4.07;;;21.20;94.00;;;;;;5034169;28;20033;-75
2022/05/14 11:55:03;;;;;;;8.95;2.72;;;22.00;90.40;;;;;;5034469;28;20492;-76
2022/05/14 11:57:37;;;;;;;11.32;3.08;;;21.90;86.30;;;;;;5017217;28;20036;-77
2022/05/14 12:00:14;;;;;;;9.40;2.70;;;21.10;87.40;;;;;;5032129;28;20025;-77
2022/05/14 12:02:43;;;;;;;13.40;3.50;;;20.50;87.80;;;;;;5028782;28;20025;-73
2022/05/14 12:05:24;;;;;;;12.73;2.85;;;20.50;90.20;;;;;;5027100;28;20044;-74
2022/05/14 12:08:01;;;;;;;9.13;3.20;;;21.50;89.50;;;;;;5008367;28;20028;-74
2022/05/14 12:11:02;;;;;;;11.85;3.53;;;22.80;84.30;;;;;;5026228;28;20056;-78
2022/05/14 12:13:35;;;;;;;14.45;3.95;;;24.00;82.00;;;;;;4988178;28;20061;-76
2022/05/14 12:16:02;;;;;;;15.32;4.28;;;23.80;77.10;;;;;;5022861;28;20036;-75
2022/05/14 12:18:28;;;;;;;11.05;3.15;;;23.40;77.00;;;;;;5013196;28;20029;-75
2022/05/14 12:21:00;;;;;;;9.52;2.92;;;22.40;77.70;;;;;;5028636;28;20125;-74
2022/05/14 12:23:42;;;;;;;9.95;2.88;;;21.50;79.60;;;;;;5028431;28;20028;-75
2022/05/14 12:26:27;;;;;;;12.35;3.00;;;21.00;82.50;;;;;;5012471;28;20060;-74
2022/05/14 12:28:58;;;;;;;11.25;3.47;;;20.70;83.60;;;;;;5010755;28;20032;-74
2022/05/14 12:34:14;;;;;;;11.90;3.30;;;20.70;84.10;;;;;;5021821;28;20440;-74
2022/05/14 12:36:48;;;;;;;10.07;2.95;;;20.70;85.50;;;;;;5008973;28;20109;-74
2022/05/14 12:39:21;;;;;;;11.05;2.90;;;21.40;84.40;;;;;;5006959;28;20624;-74
2022/05/14 12:41:57;;;;;;;12.13;3.13;;;21.40;82.30;;;;;;5009701;28;20030;-73
2022/05/14 12:44:26;;;;;;;11.70;3.15;;;21.20;82.50;;;;;;5005790;28;20395;-73
2022/05/14 12:46:56;;;;;;;10.27;3.00;;;20.80;82.70;;;;;;5024128;28;20033;-73
2022/05/14 12:49:29;;;;;;;12.05;3.78;;;20.40;83.80;;;;;;5008255;28;20551;-73
2022/05/14 12:51:58;;;;;;;13.13;4.00;;;20.10;84.50;;;;;;5009189;28;20033;-73
2022/05/14 12:54:30;;;;;;;10.70;2.88;;;19.80;85.10;;;;;;5025879;28;20091;-73
2022/05/14 12:57:00;;;;;;;9.75;2.97;;;19.50;85.00;;;;;;5010290;28;20485;-73
2022/05/14 12:59:27;;;;;;;10.65;3.20;;;19.30;86.40;;;;;;5011451;28;20486;-73
2022/05/14 13:01:59;;;;;;;11.52;3.05;;;19.40;86.00;;;;;;5012418;28;20021;-73
2022/05/14 13:04:42;;;;;;;283.23;177.60;;;19.50;85.50;;;;;;5001217;28;20519;-73
2022/05/14 13:07:10;;;;;;;30.85;17.48;;;19.50;86.20;;;;;;4992595;28;20037;-73
2022/05/14 13:09:36;;;;;;;107.15;61.92;;;19.70;85.20;;;;;;5030281;28;20509;-74
2022/05/14 13:12:03;;;;;;;13.55;5.20;;;20.00;85.30;;;;;;5014540;28;20033;-74
2022/05/14 13:14:33;;;;;;;11.85;3.65;;;20.10;84.30;;;;;;5010881;28;20496;-73
2022/05/14 13:17:07;;;;;;;9.80;3.03;;;20.00;84.30;;;;;;5009869;28;20037;-73
2022/05/14 13:19:45;;;;;;;9.50;2.83;;;19.90;83.80;;;;;;5010129;28;20519;-73